createdAt,value
2019-03-15T00:00:44.844Z,25.35
2019-03-15T00:03:14.232Z,20.57
2019-03-15T00:05:43.525Z,21.37
2019-03-15T00:08:12.852Z,23.32
2019-03-15T00:10:42.174Z,23.85
2019-03-15T00:13:12.454Z,27.60
2019-03-15T00:15:41.915Z,23.35
2019-03-15T00:18:11.243Z,20.20
2019-03-15T00:20:40.564Z,22.85
2019-03-15T00:23:09.889Z,20.77
2019-03-15T00:25:39.215Z,25.50
2019-03-15T00:28:08.541Z,23.40
2019-03-15T00:30:37.864Z,28.47
2019-03-15T00:33:07.497Z,26.65
2019-03-15T00:35:37.794Z,28.60
2019-03-15T00:38:07.359Z,21.45
2019-03-15T00:40:36.681Z,26.75
2019-03-15T00:43:06.361Z,24.60
2019-03-15T00:45:35.692Z,26.80
2019-03-15T00:48:05.008Z,19.98
2019-03-15T00:50:35.402Z,27.60
2019-03-15T00:53:04.736Z,18.12
2019-03-15T00:55:35.171Z,19.67
2019-03-15T00:58:04.484Z,27.67
2019-03-15T01:00:33.823Z,20.70
2019-03-15T01:03:03.154Z,20.57
2019-03-15T01:05:32.837Z,19.73
2019-03-15T01:08:02.434Z,21.33
2019-03-15T01:10:31.754Z,27.42
2019-03-15T01:13:01.084Z,29.92
2019-03-15T01:15:30.410Z,24.77
2019-03-15T01:17:59.744Z,21.85
2019-03-15T01:20:29.377Z,28.05
2019-03-15T01:22:58.806Z,24.98
2019-03-15T01:25:28.111Z,22.75
2019-03-15T01:27:57.688Z,24.35
2019-03-15T01:30:27.046Z,32.65
2019-03-15T01:32:56.412Z,21.90
2019-03-15T01:35:25.733Z,23.35
2019-03-15T01:37:55.073Z,26.50
2019-03-15T01:40:24.384Z,22.37
2019-03-15T01:42:53.735Z,24.63
2019-03-15T01:45:23.058Z,21.90
2019-03-15T01:47:52.413Z,22.52
2019-03-15T01:50:21.989Z,29.42
2019-03-15T01:52:51.593Z,23.95
2019-03-15T01:55:21.151Z,28.87
2019-03-15T01:57:50.485Z,19.65
2019-03-15T02:00:19.812Z,24.00
2019-03-15T02:02:49.132Z,27.98
2019-03-15T02:05:18.503Z,21.23
2019-03-15T02:07:47.820Z,21.62
2019-03-15T02:10:17.204Z,22.35
2019-03-15T02:12:47.480Z,23.95
2019-03-15T02:15:16.868Z,20.52
2019-03-15T02:17:46.227Z,18.85
2019-03-15T02:20:15.556Z,26.33
2019-03-15T02:22:44.911Z,17.52
2019-03-15T02:25:14.343Z,19.37
2019-03-15T02:27:43.664Z,26.27
2019-03-15T02:30:13.375Z,22.52
2019-03-15T02:32:42.696Z,27.42
2019-03-15T02:35:12.025Z,24.37
2019-03-15T02:37:41.349Z,12.80
2019-03-15T02:40:12.859Z,24.37
2019-03-15T02:42:42.415Z,21.10
2019-03-15T02:45:11.741Z,20.75
2019-03-15T02:47:41.070Z,25.92
2019-03-15T02:50:10.474Z,18.90
2019-03-15T02:52:39.796Z,15.68
2019-03-15T02:55:09.114Z,20.43
2019-03-15T02:57:38.439Z,24.52
2019-03-15T03:00:09.772Z,22.15
2019-03-15T03:02:39.101Z,18.45
2019-03-15T03:05:09.981Z,23.77
2019-03-15T03:07:39.360Z,22.52
2019-03-15T03:10:09.436Z,16.73
2019-03-15T03:12:38.867Z,20.62
2019-03-15T03:15:08.934Z,16.00
2019-03-15T03:17:38.292Z,18.65
2019-03-15T03:20:09.352Z,25.00
2019-03-15T03:22:38.657Z,18.20
2019-03-15T03:25:07.992Z,25.65
2019-03-15T03:27:37.314Z,16.02
2019-03-15T03:30:09.246Z,19.95
2019-03-15T03:32:38.516Z,19.92
2019-03-15T03:35:09.591Z,20.80
2019-03-15T03:37:39.253Z,20.08
2019-03-15T03:40:09.139Z,20.88
2019-03-15T03:42:38.404Z,16.45
2019-03-15T03:45:09.277Z,18.87
2019-03-15T03:47:39.569Z,19.15
2019-03-15T03:50:10.439Z,17.80
2019-03-15T03:52:42.011Z,19.42
2019-03-15T03:55:11.517Z,20.55
2019-03-15T03:57:41.153Z,22.13
2019-03-15T04:00:13.065Z,20.55
2019-03-15T04:02:42.546Z,16.35
2019-03-15T04:05:11.873Z,16.70
2019-03-15T04:07:42.341Z,19.32
2019-03-15T04:10:12.515Z,17.70
2019-03-15T04:12:41.852Z,18.17
2019-03-15T04:15:12.077Z,16.97
2019-03-15T04:17:41.401Z,19.95
2019-03-15T04:20:12.274Z,17.95
2019-03-15T04:22:41.601Z,13.85
2019-03-15T04:25:11.538Z,14.47
2019-03-15T04:27:41.145Z,19.17
2019-03-15T04:30:12.412Z,17.85
2019-03-15T04:32:41.739Z,18.70
2019-03-15T04:35:11.073Z,16.17
2019-03-15T04:37:40.399Z,19.82
2019-03-15T04:40:11.459Z,15.32
2019-03-15T04:42:40.783Z,14.93
2019-03-15T04:45:10.180Z,15.90
2019-03-15T04:47:39.568Z,17.62
2019-03-15T04:50:09.260Z,16.35
2019-03-15T04:52:38.879Z,19.80
2019-03-15T04:55:08.202Z,15.35
2019-03-15T04:57:37.535Z,20.88
2019-03-15T05:00:12.536Z,20.37
2019-03-15T05:02:41.861Z,16.15
2019-03-15T05:05:11.433Z,14.55
2019-03-15T05:07:40.763Z,10.60
2019-03-15T05:10:10.569Z,16.30
2019-03-15T05:12:40.039Z,17.75
2019-03-15T05:15:10.175Z,17.65
2019-03-15T05:17:39.535Z,25.27
2019-03-15T05:20:09.601Z,17.27
2019-03-15T05:22:38.933Z,21.70
2019-03-15T05:25:08.697Z,17.55
2019-03-15T05:27:38.027Z,20.62
2019-03-15T05:30:10.526Z,17.73
2019-03-15T05:32:39.829Z,16.90
2019-03-15T05:35:09.296Z,17.23
2019-03-15T05:37:38.629Z,20.75
2019-03-15T05:40:08.393Z,21.20
2019-03-15T05:42:38.133Z,21.52
2019-03-15T05:45:11.916Z,18.77
2019-03-15T05:47:41.268Z,19.90
2019-03-15T05:50:14.422Z,18.35
2019-03-15T05:52:43.764Z,16.60
2019-03-15T05:55:14.224Z,21.52
2019-03-15T05:57:43.550Z,27.77
2019-03-15T06:00:14.221Z,19.32
2019-03-15T06:02:43.543Z,24.65
2019-03-15T06:05:12.867Z,23.77
2019-03-15T06:07:42.183Z,24.45
2019-03-15T06:10:12.589Z,19.85
2019-03-15T06:12:41.911Z,20.88
2019-03-15T06:15:11.876Z,20.88
2019-03-15T06:17:41.201Z,22.02
2019-03-15T06:20:11.661Z,20.48
2019-03-15T06:22:40.989Z,25.12
2019-03-15T06:25:11.964Z,28.47
2019-03-15T06:27:41.244Z,24.70
2019-03-15T06:30:15.236Z,23.90
2019-03-15T06:32:44.492Z,23.92
2019-03-15T06:35:14.901Z,23.07
2019-03-15T06:37:44.232Z,21.52
2019-03-15T06:40:14.143Z,26.23
2019-03-15T06:42:43.599Z,21.57
2019-03-15T06:45:14.128Z,25.37
2019-03-15T06:47:43.429Z,32.05
2019-03-15T06:50:13.729Z,21.73
2019-03-15T06:52:43.331Z,25.55
2019-03-15T06:55:12.734Z,24.37
2019-03-15T06:57:42.060Z,22.67
2019-03-15T07:00:16.005Z,25.12
2019-03-15T07:02:46.233Z,25.95
2019-03-15T07:05:15.759Z,18.62
2019-03-15T07:07:45.623Z,20.65
2019-03-15T07:10:15.126Z,25.43
2019-03-15T07:12:44.703Z,26.65
2019-03-15T07:15:14.701Z,19.00
2019-03-15T07:17:44.033Z,22.45
2019-03-15T07:20:17.215Z,27.10
2019-03-15T07:22:46.540Z,25.70
2019-03-15T07:25:15.873Z,23.30
2019-03-15T07:27:45.196Z,27.05
2019-03-15T07:30:16.058Z,23.77
2019-03-15T07:32:45.377Z,28.73
2019-03-15T07:35:14.700Z,26.07
2019-03-15T07:37:45.778Z,24.00
2019-03-15T07:40:16.464Z,23.83
2019-03-15T07:42:46.052Z,26.15
2019-03-15T07:45:15.686Z,22.70
2019-03-15T07:47:45.016Z,21.37
2019-03-15T07:50:15.593Z,24.67
2019-03-15T07:52:44.916Z,25.80
2019-03-15T07:55:14.269Z,25.45
2019-03-15T07:57:43.659Z,24.55
2019-03-15T08:00:14.753Z,21.45
2019-03-15T08:02:44.080Z,18.40
2019-03-15T08:05:13.640Z,18.67
2019-03-15T08:07:45.564Z,22.35
2019-03-15T08:10:14.120Z,21.00
2019-03-15T08:12:43.701Z,18.70
2019-03-15T08:15:13.692Z,16.62
2019-03-15T08:17:43.025Z,16.93
2019-03-15T08:20:14.349Z,15.38
2019-03-15T08:22:43.847Z,18.00
2019-03-15T08:25:13.169Z,16.48
2019-03-15T08:27:42.513Z,16.52
2019-03-15T08:30:13.588Z,16.60
2019-03-15T08:32:43.944Z,16.12
2019-03-15T08:35:14.209Z,13.80
2019-03-15T08:37:43.527Z,14.83
2019-03-15T08:40:14.189Z,21.05
2019-03-15T08:42:43.820Z,17.48
2019-03-15T08:45:17.812Z,17.05
2019-03-15T08:47:47.251Z,13.35
2019-03-15T08:50:19.724Z,15.60
2019-03-15T08:52:49.131Z,14.83
2019-03-15T08:55:18.609Z,17.37
2019-03-15T08:57:47.943Z,20.10
2019-03-15T09:00:19.190Z,18.20
2019-03-15T09:02:48.519Z,16.15
2019-03-15T09:05:18.383Z,18.85
2019-03-15T09:07:47.713Z,25.40
2019-03-15T09:10:23.312Z,18.60
2019-03-15T09:12:49.320Z,19.62
2019-03-15T09:15:18.744Z,19.52
2019-03-15T09:17:48.071Z,18.90
2019-03-15T09:20:17.398Z,20.10
2019-03-15T09:22:46.734Z,17.60
2019-03-15T09:25:20.132Z,22.67
2019-03-15T09:27:48.213Z,24.37
2019-03-15T09:30:23.559Z,22.58
2019-03-15T09:32:48.901Z,18.62
2019-03-15T09:35:18.475Z,19.55
2019-03-15T09:37:48.002Z,19.95
2019-03-15T09:40:17.380Z,21.85
2019-03-15T09:42:46.725Z,19.17
2019-03-15T09:45:17.478Z,19.07
2019-03-15T09:47:47.078Z,21.52
2019-03-15T09:50:24.978Z,19.85
2019-03-15T09:52:48.082Z,21.30
2019-03-15T09:55:17.755Z,21.70
2019-03-15T09:57:48.033Z,18.87
2019-03-15T10:00:18.511Z,17.70
2019-03-15T10:02:47.917Z,19.12
2019-03-15T10:05:17.246Z,21.37
2019-03-15T10:07:46.702Z,21.97
2019-03-15T10:10:19.343Z,23.62
2019-03-15T10:12:49.008Z,19.80
2019-03-15T10:15:19.613Z,20.62
2019-03-15T10:17:49.319Z,30.15
2019-03-15T10:20:18.645Z,25.60
2019-03-15T10:23:03.962Z,32.80
2019-03-15T10:25:19.019Z,25.48
2019-03-15T10:27:48.606Z,26.97
2019-03-15T10:30:19.143Z,30.10
2019-03-15T10:32:48.589Z,31.77
2019-03-15T10:35:17.910Z,25.62
2019-03-15T10:37:47.273Z,25.90
2019-03-15T10:40:22.096Z,26.37
2019-03-15T10:42:51.651Z,28.17
2019-03-15T10:45:20.931Z,31.07
2019-03-15T10:47:50.266Z,28.00
2019-03-15T10:50:20.246Z,24.87
2019-03-15T10:52:49.578Z,21.90
2019-03-15T10:55:20.669Z,24.20
2019-03-15T10:57:50.140Z,25.80
2019-03-15T11:00:20.332Z,26.55
2019-03-15T11:02:49.719Z,22.40
2019-03-15T11:05:19.287Z,33.60
2019-03-15T11:07:48.858Z,34.65
2019-03-15T11:10:18.260Z,30.68
2019-03-15T11:12:47.592Z,30.45
2019-03-15T11:15:17.014Z,35.90
2019-03-15T11:17:46.341Z,34.03
2019-03-15T11:20:15.718Z,35.83
2019-03-15T11:22:45.042Z,34.40
2019-03-15T11:25:14.400Z,43.58
2019-03-15T11:27:43.735Z,29.07
2019-03-15T11:30:14.347Z,34.73
2019-03-15T11:32:43.680Z,30.27
2019-03-15T11:35:13.318Z,31.45
2019-03-15T11:37:42.648Z,31.73
2019-03-15T11:40:18.894Z,26.33
2019-03-15T11:42:47.290Z,33.15
2019-03-15T11:45:16.702Z,31.37
2019-03-15T11:48:01.895Z,28.02
2019-03-15T11:50:18.635Z,29.72
2019-03-15T11:52:47.967Z,23.73
2019-03-15T11:55:17.309Z,29.30
2019-03-15T11:57:46.647Z,33.63
2019-03-15T12:00:19.395Z,26.95
2019-03-15T12:02:49.031Z,26.23
2019-03-15T12:05:18.368Z,27.00
2019-03-15T12:07:47.731Z,26.05
2019-03-15T12:10:17.921Z,27.27
2019-03-15T12:12:47.635Z,30.55
2019-03-15T12:15:17.925Z,33.42
2019-03-15T12:17:47.333Z,28.42
2019-03-15T12:20:16.735Z,29.50
2019-03-15T12:22:46.098Z,27.20
2019-03-15T12:25:15.419Z,28.20
2019-03-15T12:27:44.802Z,27.80
2019-03-15T12:30:17.674Z,19.55
2019-03-15T12:32:47.019Z,21.80
2019-03-15T12:35:19.411Z,27.40
2019-03-15T12:37:48.721Z,26.35
2019-03-15T12:40:18.581Z,22.80
2019-03-15T12:42:48.148Z,26.27
2019-03-15T12:45:17.505Z,23.07
2019-03-15T12:47:46.820Z,19.32
2019-03-15T12:50:16.422Z,21.75
2019-03-15T12:52:48.512Z,22.98
2019-03-15T12:55:17.018Z,21.97
2019-03-15T12:57:49.033Z,18.87
2019-03-15T13:00:20.937Z,16.17
2019-03-15T13:02:51.234Z,18.77
2019-03-15T13:05:20.563Z,16.65
2019-03-15T13:07:49.900Z,13.10
2019-03-15T13:10:20.470Z,16.15
2019-03-15T13:12:50.784Z,14.18
2019-03-15T13:15:20.334Z,14.07
2019-03-15T13:17:49.664Z,12.58
2019-03-15T13:20:19.237Z,16.60
2019-03-15T13:22:48.797Z,13.88
2019-03-15T13:25:18.129Z,12.35
2019-03-15T13:27:47.462Z,16.80
2019-03-15T13:30:17.060Z,14.53
2019-03-15T13:32:46.391Z,17.27
2019-03-15T13:35:15.721Z,17.10
2019-03-15T13:37:45.291Z,15.23
2019-03-15T13:40:16.295Z,14.63
2019-03-15T13:42:45.626Z,18.75
2019-03-15T13:45:15.805Z,19.12
2019-03-15T13:47:45.148Z,15.88
2019-03-15T13:50:19.245Z,16.65
2019-03-15T13:52:48.586Z,16.87
2019-03-15T13:55:17.927Z,14.55
2019-03-15T13:57:47.274Z,15.18
2019-03-15T14:00:18.087Z,20.30
2019-03-15T14:02:47.421Z,20.85
2019-03-15T14:05:16.823Z,25.08
2019-03-15T14:07:46.162Z,17.10
2019-03-15T14:10:17.314Z,11.28
2019-03-15T14:12:46.642Z,17.25
2019-03-15T14:15:17.526Z,11.35
2019-03-15T14:17:46.865Z,14.38
2019-03-15T14:20:16.194Z,14.53
2019-03-15T14:22:45.607Z,10.60
2019-03-15T14:25:18.222Z,13.85
2019-03-15T14:27:47.555Z,16.15
2019-03-15T14:30:16.907Z,13.53
2019-03-15T14:32:46.267Z,11.18
2019-03-15T14:35:15.647Z,8.83
2019-03-15T14:37:45.000Z,8.48
2019-03-15T14:40:14.586Z,15.72
2019-03-15T14:42:44.066Z,11.20
2019-03-15T14:45:14.412Z,10.23
2019-03-15T14:47:43.712Z,11.95
2019-03-15T14:50:15.144Z,9.10
2019-03-15T14:52:44.479Z,12.35
2019-03-15T14:55:15.905Z,8.85
2019-03-15T14:57:52.465Z,12.80
2019-03-15T15:00:21.100Z,9.30
2019-03-15T15:02:50.670Z,9.50
2019-03-15T15:05:19.993Z,10.08
2019-03-15T15:07:49.337Z,9.55
2019-03-15T15:10:19.550Z,11.65
2019-03-15T15:12:48.887Z,10.90
2019-03-15T15:15:20.661Z,12.30
2019-03-15T15:17:50.004Z,8.63
2019-03-15T15:20:19.379Z,9.03
2019-03-15T15:22:48.732Z,10.15
2019-03-15T15:25:18.788Z,9.55
2019-03-15T15:27:48.126Z,12.82
2019-03-15T15:30:18.194Z,11.05
2019-03-15T15:32:47.525Z,8.13
2019-03-15T15:35:16.915Z,12.10
2019-03-15T15:37:46.560Z,15.28
2019-03-15T15:40:19.091Z,17.37
2019-03-15T15:42:48.418Z,15.72
2019-03-15T15:45:18.010Z,15.08
2019-03-15T15:47:47.341Z,19.73
2019-03-15T15:50:17.355Z,15.18
2019-03-15T15:52:46.689Z,16.45
2019-03-15T15:55:16.738Z,14.98
2019-03-15T15:57:57.853Z,15.15
2019-03-15T16:00:27.188Z,17.12
2019-03-15T16:02:56.515Z,17.20
2019-03-15T16:05:25.852Z,17.95
2019-03-15T16:07:56.599Z,19.57
2019-03-15T16:10:26.102Z,13.78
2019-03-15T16:12:55.502Z,21.55
2019-03-15T16:15:24.838Z,19.55
2019-03-15T16:17:54.179Z,19.20
2019-03-15T16:20:23.618Z,19.57
2019-03-15T16:22:52.947Z,18.25
2019-03-15T16:25:22.525Z,19.60
2019-03-15T16:27:51.854Z,20.97
2019-03-15T16:30:21.458Z,22.87
2019-03-15T16:32:50.785Z,21.20
2019-03-15T16:35:20.424Z,25.75
2019-03-15T16:37:49.759Z,26.07
2019-03-15T16:40:19.115Z,22.50
2019-03-15T16:42:50.074Z,24.12
2019-03-15T16:45:28.460Z,22.02
2019-03-15T16:47:57.786Z,16.17
2019-03-15T16:50:27.119Z,17.60
2019-03-15T16:52:56.905Z,16.73
2019-03-15T16:55:26.621Z,12.53
2019-03-15T16:57:56.021Z,6.80
2019-03-15T17:00:26.034Z,6.60
2019-03-15T17:02:55.372Z,6.10
2019-03-15T17:05:24.733Z,5.90
2019-03-15T17:07:54.215Z,9.60
2019-03-15T17:10:23.517Z,8.73
2019-03-15T17:12:55.589Z,9.43
2019-03-15T17:15:25.611Z,10.25
2019-03-15T17:17:55.033Z,12.47
2019-03-15T17:20:25.344Z,12.70
2019-03-15T17:22:54.668Z,7.45
2019-03-15T17:25:24.015Z,9.68
2019-03-15T17:27:53.342Z,9.38
2019-03-15T17:30:22.660Z,12.90
2019-03-15T17:32:51.999Z,13.38
2019-03-15T17:35:22.185Z,9.90
2019-03-15T17:37:51.544Z,14.00
2019-03-15T17:40:21.922Z,10.63
2019-03-15T17:42:51.265Z,9.70
2019-03-15T17:45:20.660Z,9.88
2019-03-15T17:47:49.989Z,8.78
2019-03-15T17:50:24.022Z,10.05
2019-03-15T17:52:53.351Z,13.10
2019-03-15T17:55:22.687Z,8.03
2019-03-15T17:57:52.015Z,9.08
2019-03-15T18:00:31.762Z,9.98
2019-03-15T18:03:01.119Z,12.45
2019-03-15T18:05:30.442Z,11.63
2019-03-15T18:07:59.770Z,13.90
2019-03-15T18:10:32.495Z,13.50
2019-03-15T18:13:00.130Z,14.50
2019-03-15T18:15:29.796Z,11.18
2019-03-15T18:18:00.174Z,14.70
2019-03-15T18:20:29.945Z,11.03
2019-03-15T18:22:59.277Z,18.17
2019-03-15T18:25:28.595Z,14.50
2019-03-15T18:27:57.940Z,9.98
2019-03-15T18:30:27.251Z,14.40
2019-03-15T18:32:56.907Z,15.78
2019-03-15T18:35:33.767Z,14.07
2019-03-15T18:37:57.321Z,16.87
2019-03-15T18:40:26.647Z,14.07
2019-03-15T18:42:55.985Z,12.10
2019-03-15T18:45:25.317Z,17.65
2019-03-15T18:47:54.643Z,12.55
2019-03-15T18:50:27.933Z,17.85
2019-03-15T18:52:57.574Z,15.68
2019-03-15T18:55:28.104Z,14.43
2019-03-15T18:57:57.449Z,13.43
2019-03-15T19:00:27.114Z,19.82
2019-03-15T19:02:59.703Z,15.32
2019-03-15T19:05:27.480Z,18.55
2019-03-15T19:07:56.855Z,20.88
2019-03-15T19:10:26.185Z,18.65
2019-03-15T19:12:55.522Z,18.60
2019-03-15T19:15:24.839Z,13.68
2019-03-15T19:17:54.198Z,21.07
2019-03-15T19:20:23.513Z,24.98
2019-03-15T19:22:52.847Z,36.63
2019-03-15T19:25:22.184Z,18.48
2019-03-15T19:27:51.766Z,22.62
2019-03-15T19:30:21.110Z,30.17
2019-03-15T19:32:50.666Z,25.75
2019-03-15T19:35:20.049Z,25.70
2019-03-15T19:37:49.463Z,20.77
2019-03-15T19:40:19.534Z,17.17
2019-03-15T19:42:48.879Z,14.47
2019-03-15T19:45:18.288Z,21.42
2019-03-15T19:47:47.605Z,15.48
2019-03-15T19:50:22.883Z,20.20
2019-03-15T19:52:52.288Z,16.82
2019-03-15T19:55:21.690Z,20.50
2019-03-15T19:57:51.032Z,19.05
2019-03-15T20:00:23.073Z,21.80
2019-03-15T20:02:52.478Z,19.30
2019-03-15T20:05:22.772Z,22.65
2019-03-15T20:07:52.243Z,18.45
2019-03-15T20:10:21.574Z,22.80
2019-03-15T20:12:50.921Z,21.68
2019-03-15T20:15:20.232Z,14.93
2019-03-15T20:17:49.559Z,19.20
2019-03-15T20:20:20.359Z,13.13
2019-03-15T20:22:49.768Z,15.80
2019-03-15T20:25:19.195Z,16.87
2019-03-15T20:27:48.582Z,17.95
2019-03-15T20:30:24.570Z,20.25
2019-03-15T20:32:50.458Z,20.75
2019-03-15T20:35:19.836Z,21.45
2019-03-15T20:37:50.168Z,18.82
2019-03-15T20:40:19.509Z,20.15
2019-03-15T20:42:48.846Z,21.82
2019-03-15T20:45:23.134Z,16.80
2019-03-15T20:47:52.466Z,16.23
2019-03-15T20:50:21.802Z,17.45
2019-03-15T20:52:51.373Z,19.12
2019-03-15T20:55:20.785Z,49.70
2019-03-15T20:57:50.377Z,20.35
2019-03-15T21:00:34.282Z,15.58
2019-03-15T21:02:52.988Z,19.17
2019-03-15T21:05:22.301Z,20.27
2019-03-15T21:07:51.857Z,36.00
2019-03-15T21:10:21.193Z,23.87
2019-03-15T21:12:50.536Z,25.43
2019-03-15T21:15:19.870Z,18.70
2019-03-15T21:17:49.457Z,27.07
2019-03-15T21:20:22.367Z,19.23
2019-03-15T21:22:50.813Z,39.42
2019-03-15T21:25:20.386Z,36.23
2019-03-15T21:27:54.003Z,55.88
2019-03-15T21:30:22.913Z,31.37
2019-03-15T21:32:52.240Z,24.25
2019-03-15T21:35:21.576Z,33.40
2019-03-15T21:37:50.934Z,26.50
2019-03-15T21:40:21.102Z,15.68
2019-03-15T21:42:50.673Z,19.45
2019-03-15T21:45:20.001Z,15.35
2019-03-15T21:47:49.411Z,23.38
2019-03-15T21:50:20.858Z,24.90
2019-03-15T21:52:50.326Z,38.53
2019-03-15T21:55:19.676Z,28.38
2019-03-15T21:57:49.149Z,42.55
2019-03-15T22:00:19.561Z,43.85
2019-03-15T22:02:49.210Z,45.50
2019-03-15T22:05:18.567Z,65.52
2019-03-15T22:07:47.983Z,43.50
2019-03-15T22:10:18.054Z,27.60
2019-03-15T22:12:47.409Z,27.73
2019-03-15T22:15:17.053Z,33.63
2019-03-15T22:17:46.407Z,22.07
2019-03-15T22:20:16.753Z,23.42
2019-03-15T22:22:46.976Z,18.60
2019-03-15T22:25:16.307Z,28.47
2019-03-15T22:27:45.639Z,16.42
2019-03-15T22:30:15.562Z,19.55
2019-03-15T22:32:44.907Z,22.00
2019-03-15T22:35:14.659Z,22.50
2019-03-15T22:37:44.522Z,16.40
2019-03-15T22:40:14.484Z,24.95
2019-03-15T22:42:44.415Z,23.80
2019-03-15T22:45:14.371Z,22.32
2019-03-15T22:47:44.349Z,22.42
2019-03-15T22:50:15.157Z,27.77
2019-03-15T22:52:44.548Z,21.40
2019-03-15T22:55:13.957Z,18.80
2019-03-15T22:57:43.292Z,23.90
2019-03-15T23:00:15.723Z,21.62
2019-03-15T23:02:46.783Z,21.57
2019-03-15T23:05:16.261Z,23.45
2019-03-15T23:07:46.920Z,20.40
2019-03-15T23:10:16.529Z,20.15
2019-03-15T23:12:46.186Z,21.27
2019-03-15T23:15:15.498Z,23.07
2019-03-15T23:17:45.151Z,23.62
2019-03-15T23:20:14.751Z,26.65
2019-03-15T23:22:44.136Z,19.37
2019-03-15T23:25:13.533Z,23.15
2019-03-15T23:27:43.123Z,22.50
2019-03-15T23:30:16.679Z,21.25
2019-03-15T23:32:46.001Z,18.27
2019-03-15T23:35:15.351Z,18.12
2019-03-15T23:37:44.655Z,26.30
2019-03-15T23:40:14.853Z,28.50
2019-03-15T23:42:44.172Z,23.07
2019-03-15T23:45:13.570Z,15.43
2019-03-15T23:47:42.893Z,23.20
2019-03-15T23:50:13.662Z,18.10
2019-03-15T23:52:42.995Z,20.52
2019-03-15T23:55:12.392Z,26.90
2019-03-15T23:57:41.713Z,29.40
